sensor_id;sensor_type;location;lat;lon;timestamp;temperature;humidity
2565;DHT22;1292;48.020;7.822;2024-01-06T06:47:16;7.20;99.90
2565;DHT22;1292;48.020;7.822;2024-01-06T06:49:44;7.20;99.90
2565;DHT22;1292;48.020;7.822;2024-01-06T06:52:11;7.10;99.90
2565;DHT22;1292;48.020;7.822;2024-01-06T06:54:38;7.10;99.90
2565;DHT22;1292;48.020;7.822;2024-01-06T06:57:05;7.20;99.90
2565;DHT22;1292;48.020;7.822;2024-01-06T06:59:32;7.20;99.90
2565;DHT22;1292;48.020;7.822;2024-01-06T07:01:59;7.20;99.90
2565;DHT22;1292;48.020;7.822;2024-01-06T07:04:27;7.20;99.90
2565;DHT22;1292;48.020;7.822;2024-01-06T07:06:53;7.20;99.90
2565;DHT22;1292;48.020;7.822;2024-01-06T07:09:20;7.20;99.90
2565;DHT22;1292;48.020;7.822;2024-01-06T07:11:48;7.30;99.90
2565;DHT22;1292;48.020;7.822;2024-01-06T07:14:15;7.30;99.90
2565;DHT22;1292;48.020;7.822;2024-01-06T07:16:42;7.30;99.90
2565;DHT22;1292;48.020;7.822;2024-01-06T07:19:09;7.30;99.90
2565;DHT22;1292;48.020;7.822;2024-01-06T07:21:37;7.30;99.90
2565;DHT22;1292;48.020;7.822;2024-01-06T07:24:04;7.20;99.90
2565;DHT22;1292;48.020;7.822;2024-01-06T07:26:31;7.20;99.90
2565;DHT22;1292;48.020;7.822;2024-01-06T07:28:58;7.20;99.90
2565;DHT22;1292;48.020;7.822;2024-01-06T07:31:25;7.30;99.90
2565;DHT22;1292;48.020;7.822;2024-01-06T07:33:51;7.30;99.90
2565;DHT22;1292;48.020;7.822;2024-01-06T07:36:18;7.30;99.90
2565;DHT22;1292;48.020;7.822;2024-01-06T07:38:48;7.30;99.90
2565;DHT22;1292;48.020;7.822;2024-01-06T07:41:15;7.30;99.90
2565;DHT22;1292;48.020;7.822;2024-01-06T07:43:42;7.30;99.90
2565;DHT22;1292;48.020;7.822;2024-01-06T07:46:08;7.30;99.90
2565;DHT22;1292;48.020;7.822;2024-01-06T07:48:36;7.30;99.90
2565;DHT22;1292;48.020;7.822;2024-01-06T07:51:03;7.40;99.90
2565;DHT22;1292;48.020;7.822;2024-01-06T07:53:30;7.40;99.90
2565;DHT22;1292;48.020;7.822;2024-01-06T07:55:58;7.40;99.90
2565;DHT22;1292;48.020;7.822;2024-01-06T07:58:25;7.40;99.90
2565;DHT22;1292;48.020;7.822;2024-01-06T08:00:53;7.40;99.90
2565;DHT22;1292;48.020;7.822;2024-01-06T08:03:20;7.40;99.90
2565;DHT22;1292;48.020;7.822;2024-01-06T08:05:47;7.50;99.90
2565;DHT22;1292;48.020;7.822;2024-01-06T08:08:13;7.50;99.90
2565;DHT22;1292;48.020;7.822;2024-01-06T08:10:42;7.40;99.90
2565;DHT22;1292;48.020;7.822;2024-01-06T08:13:10;7.50;99.90
2565;DHT22;1292;48.020;7.822;2024-01-06T08:15:38;7.50;99.90
2565;DHT22;1292;48.020;7.822;2024-01-06T08:18:05;7.50;99.90
2565;DHT22;1292;48.020;7.822;2024-01-06T08:20:32;7.50;99.90
2565;DHT22;1292;48.020;7.822;2024-01-06T08:22:59;7.50;99.90
2565;DHT22;1292;48.020;7.822;2024-01-06T08:25:26;7.40;99.90
2565;DHT22;1292;48.020;7.822;2024-01-06T08:27:53;7.50;99.90
2565;DHT22;1292;48.020;7.822;2024-01-06T08:30:21;7.40;99.90
2565;DHT22;1292;48.020;7.822;2024-01-06T08:32:49;7.40;99.90
2565;DHT22;1292;48.020;7.822;2024-01-06T08:35:15;7.50;99.90
2565;DHT22;1292;48.020;7.822;2024-01-06T08:37:42;7.50;99.90
2565;DHT22;1292;48.020;7.822;2024-01-06T08:40:10;7.50;99.90
2565;DHT22;1292;48.020;7.822;2024-01-06T08:42:38;7.60;99.90
2565;DHT22;1292;48.020;7.822;2024-01-06T08:45:05;7.60;99.90
2565;DHT22;1292;48.020;7.822;2024-01-06T08:47:33;7.70;99.90
2565;DHT22;1292;48.020;7.822;2024-01-06T08:50:01;7.70;99.90
2565;DHT22;1292;48.020;7.822;2024-01-06T08:52:28;7.70;99.90
2565;DHT22;1292;48.020;7.822;2024-01-06T08:54:55;7.70;99.90
2565;DHT22;1292;48.020;7.822;2024-01-06T08:57:22;7.80;99.90
2565;DHT22;1292;48.020;7.822;2024-01-06T08:59:49;7.80;99.90
2565;DHT22;1292;48.020;7.822;2024-01-06T09:02:15;7.70;99.90
2565;DHT22;1292;48.020;7.822;2024-01-06T09:04:44;7.80;99.90
2565;DHT22;1292;48.020;7.822;2024-01-06T09:07:10;7.90;99.90
2565;DHT22;1292;48.020;7.822;2024-01-06T09:09:37;7.90;99.90
2565;DHT22;1292;48.020;7.822;2024-01-06T09:12:05;7.80;99.90
2565;DHT22;1292;48.020;7.822;2024-01-06T09:14:31;7.90;99.90
2565;DHT22;1292;48.020;7.822;2024-01-06T09:16:58;7.80;99.90
2565;DHT22;1292;48.020;7.822;2024-01-06T09:19:25;7.80;99.90
2565;DHT22;1292;48.020;7.822;2024-01-06T09:21:55;7.70;99.90
2565;DHT22;1292;48.020;7.822;2024-01-06T09:24:22;7.70;99.90
2565;DHT22;1292;48.020;7.822;2024-01-06T09:26:49;7.70;99.90
2565;DHT22;1292;48.020;7.822;2024-01-06T09:29:17;7.70;99.90
2565;DHT22;1292;48.020;7.822;2024-01-06T09:31:44;7.80;99.90
2565;DHT22;1292;48.020;7.822;2024-01-06T09:34:11;7.80;99.90
2565;DHT22;1292;48.020;7.822;2024-01-06T09:36:38;7.80;99.90
2565;DHT22;1292;48.020;7.822;2024-01-06T09:39:07;7.90;99.90
2565;DHT22;1292;48.020;7.822;2024-01-06T09:41:34;7.90;99.90
2565;DHT22;1292;48.020;7.822;2024-01-06T09:44:01;8.00;99.90
2565;DHT22;1292;48.020;7.822;2024-01-06T09:46:29;7.90;99.90
2565;DHT22;1292;48.020;7.822;2024-01-06T09:48:56;8.00;99.90
2565;DHT22;1292;48.020;7.822;2024-01-06T09:51:24;8.00;99.90
2565;DHT22;1292;48.020;7.822;2024-01-06T09:53:57;8.00;99.90
2565;DHT22;1292;48.020;7.822;2024-01-06T09:56:27;8.10;99.90
2565;DHT22;1292;48.020;7.822;2024-01-06T09:58:55;8.10;99.90
2565;DHT22;1292;48.020;7.822;2024-01-06T10:01:22;8.20;99.90
2565;DHT22;1292;48.020;7.822;2024-01-06T10:03:49;8.10;99.90
2565;DHT22;1292;48.020;7.822;2024-01-06T10:06:17;8.10;99.90
2565;DHT22;1292;48.020;7.822;2024-01-06T10:08:48;8.00;99.90
2565;DHT22;1292;48.020;7.822;2024-01-06T10:11:15;8.10;99.90
2565;DHT22;1292;48.020;7.822;2024-01-06T10:13:43;8.10;99.90
2565;DHT22;1292;48.020;7.822;2024-01-06T10:16:10;8.00;99.90
2565;DHT22;1292;48.020;7.822;2024-01-06T10:18:37;8.10;99.90
2565;DHT22;1292;48.020;7.822;2024-01-06T10:21:06;8.10;99.90
2565;DHT22;1292;48.020;7.822;2024-01-06T10:23:33;8.20;99.90
2565;DHT22;1292;48.020;7.822;2024-01-06T10:26:00;8.20;99.90
2565;DHT22;1292;48.020;7.822;2024-01-06T10:28:27;8.30;99.90
2565;DHT22;1292;48.020;7.822;2024-01-06T10:30:55;8.30;99.90
2565;DHT22;1292;48.020;7.822;2024-01-06T10:33:24;8.30;99.90
2565;DHT22;1292;48.020;7.822;2024-01-06T10:35:52;8.30;99.90
2565;DHT22;1292;48.020;7.822;2024-01-06T10:38:20;8.30;99.90
2565;DHT22;1292;48.020;7.822;2024-01-06T10:40:56;8.30;99.90
2565;DHT22;1292;48.020;7.822;2024-01-06T10:43:25;8.20;99.90
2565;DHT22;1292;48.020;7.822;2024-01-06T10:45:54;8.30;99.90
2565;DHT22;1292;48.020;7.822;2024-01-06T10:48:24;8.30;99.90
2565;DHT22;1292;48.020;7.822;2024-01-06T10:50:52;8.30;99.90
2565;DHT22;1292;48.020;7.822;2024-01-06T10:53:21;8.30;99.90
2565;DHT22;1292;48.020;7.822;2024-01-06T10:55:49;8.30;99.90
2565;DHT22;1292;48.020;7.822;2024-01-06T10:58:17;8.30;99.90
2565;DHT22;1292;48.020;7.822;2024-01-06T11:00:44;8.20;99.90
2565;DHT22;1292;48.020;7.822;2024-01-06T11:03:13;8.30;99.90
2565;DHT22;1292;48.020;7.822;2024-01-06T11:05:41;8.40;99.90
2565;DHT22;1292;48.020;7.822;2024-01-06T11:08:08;8.50;99.90
2565;DHT22;1292;48.020;7.822;2024-01-06T11:10:37;8.60;99.90
2565;DHT22;1292;48.020;7.822;2024-01-06T11:13:09;8.50;99.90
2565;DHT22;1292;48.020;7.822;2024-01-06T11:15:41;8.60;99.90
2565;DHT22;1292;48.020;7.822;2024-01-06T11:18:08;8.50;99.90
2565;DHT22;1292;48.020;7.822;2024-01-06T11:20:36;8.50;99.90
2565;DHT22;1292;48.020;7.822;2024-01-06T11:23:19;8.60;99.90
2565;DHT22;1292;48.020;7.822;2024-01-06T11:25:46;8.60;99.90
2565;DHT22;1292;48.020;7.822;2024-01-06T11:28:13;8.40;99.90
2565;DHT22;1292;48.020;7.822;2024-01-06T11:30:43;8.30;99.90
2565;DHT22;1292;48.020;7.822;2024-01-06T11:33:10;8.30;99.90
2565;DHT22;1292;48.020;7.822;2024-01-06T11:35:39;8.40;99.90
2565;DHT22;1292;48.020;7.822;2024-01-06T11:38:07;8.20;99.90
2565;DHT22;1292;48.020;7.822;2024-01-06T11:40:35;8.10;99.90
2565;DHT22;1292;48.020;7.822;2024-01-06T11:43:03;8.10;99.90
2565;DHT22;1292;48.020;7.822;2024-01-06T11:45:31;8.20;99.90
2565;DHT22;1292;48.020;7.822;2024-01-06T11:48:00;8.30;99.90
2565;DHT22;1292;48.020;7.822;2024-01-06T11:50:28;8.30;99.90
2565;DHT22;1292;48.020;7.822;2024-01-06T11:52:56;8.30;99.90
2565;DHT22;1292;48.020;7.822;2024-01-06T11:55:25;8.40;99.90
2565;DHT22;1292;48.020;7.822;2024-01-06T11:57:53;8.30;99.90
2565;DHT22;1292;48.020;7.822;2024-01-06T12:00:22;8.20;99.90
2565;DHT22;1292;48.020;7.822;2024-01-06T12:02:49;8.30;99.90
2565;DHT22;1292;48.020;7.822;2024-01-06T12:05:16;8.20;99.90
2565;DHT22;1292;48.020;7.822;2024-01-06T12:07:53;8.20;99.90
2565;DHT22;1292;48.020;7.822;2024-01-06T12:10:22;8.30;99.90
2565;DHT22;1292;48.020;7.822;2024-01-06T12:12:59;8.40;99.90
2565;DHT22;1292;48.020;7.822;2024-01-06T12:15:26;8.40;99.90
2565;DHT22;1292;48.020;7.822;2024-01-06T12:17:53;8.20;99.90
2565;DHT22;1292;48.020;7.822;2024-01-06T12:20:21;8.20;99.90
2565;DHT22;1292;48.020;7.822;2024-01-06T12:22:49;8.30;99.90
2565;DHT22;1292;48.020;7.822;2024-01-06T12:25:16;8.20;99.90
2565;DHT22;1292;48.020;7.822;2024-01-06T12:27:45;8.10;99.90
2565;DHT22;1292;48.020;7.822;2024-01-06T12:30:13;8.20;99.90
2565;DHT22;1292;48.020;7.822;2024-01-06T12:32:42;8.10;99.90
2565;DHT22;1292;48.020;7.822;2024-01-06T12:35:09;7.90;99.90
2565;DHT22;1292;48.020;7.822;2024-01-06T12:37:37;7.80;99.90
2565;DHT22;1292;48.020;7.822;2024-01-06T12:40:05;7.90;99.90
2565;DHT22;1292;48.020;7.822;2024-01-06T12:42:32;7.90;99.90
2565;DHT22;1292;48.020;7.822;2024-01-06T12:45:00;7.90;99.90
2565;DHT22;1292;48.020;7.822;2024-01-06T12:47:26;8.10;99.90
2565;DHT22;1292;48.020;7.822;2024-01-06T12:49:53;8.00;99.90
2565;DHT22;1292;48.020;7.822;2024-01-06T12:52:20;7.90;99.90
2565;DHT22;1292;48.020;7.822;2024-01-06T12:54:47;7.90;99.90
2565;DHT22;1292;48.020;7.822;2024-01-06T12:57:14;7.90;99.90
2565;DHT22;1292;48.020;7.822;2024-01-06T12:59:41;7.90;99.90
2565;DHT22;1292;48.020;7.822;2024-01-06T13:02:09;8.00;99.90
2565;DHT22;1292;48.020;7.822;2024-01-06T13:04:36;7.90;99.90
2565;DHT22;1292;48.020;7.822;2024-01-06T13:07:03;7.90;99.90
2565;DHT22;1292;48.020;7.822;2024-01-06T13:09:30;7.90;99.90
2565;DHT22;1292;48.020;7.822;2024-01-06T13:11:58;7.70;99.90
2565;DHT22;1292;48.020;7.822;2024-01-06T13:14:25;7.80;99.90
2565;DHT22;1292;48.020;7.822;2024-01-06T13:16:52;7.80;99.90
2565;DHT22;1292;48.020;7.822;2024-01-06T13:19:21;7.90;99.90
2565;DHT22;1292;48.020;7.822;2024-01-06T13:21:47;7.90;99.90
2565;DHT22;1292;48.020;7.822;2024-01-06T13:24:14;7.80;99.90
2565;DHT22;1292;48.020;7.822;2024-01-06T13:26:41;7.90;99.90
2565;DHT22;1292;48.020;7.822;2024-01-06T13:29:08;7.90;99.90
2565;DHT22;1292;48.020;7.822;2024-01-06T13:31:35;7.80;99.90
2565;DHT22;1292;48.020;7.822;2024-01-06T13:34:02;7.80;99.90
2565;DHT22;1292;48.020;7.822;2024-01-06T13:36:31;7.90;99.90
2565;DHT22;1292;48.020;7.822;2024-01-06T13:38:57;7.80;99.90
2565;DHT22;1292;48.020;7.822;2024-01-06T13:41:25;7.80;99.90
2565;DHT22;1292;48.020;7.822;2024-01-06T13:43:52;7.80;99.90
2565;DHT22;1292;48.020;7.822;2024-01-06T13:46:20;7.80;99.90
2565;DHT22;1292;48.020;7.822;2024-01-06T13:48:47;7.90;99.90
2565;DHT22;1292;48.020;7.822;2024-01-06T13:51:14;7.90;99.90
2565;DHT22;1292;48.020;7.822;2024-01-06T13:53:42;7.80;99.90
2565;DHT22;1292;48.020;7.822;2024-01-06T13:56:09;7.90;99.90
2565;DHT22;1292;48.020;7.822;2024-01-06T13:58:36;7.90;99.90
2565;DHT22;1292;48.020;7.822;2024-01-06T14:01:04;7.80;99.90
2565;DHT22;1292;48.020;7.822;2024-01-06T14:03:30;7.80;99.90
2565;DHT22;1292;48.020;7.822;2024-01-06T14:05:58;7.80;99.90
2565;DHT22;1292;48.020;7.822;2024-01-06T14:08:25;7.80;99.90
2565;DHT22;1292;48.020;7.822;2024-01-06T14:10:53;7.80;99.90
2565;DHT22;1292;48.020;7.822;2024-01-06T14:13:20;7.80;99.90
2565;DHT22;1292;48.020;7.822;2024-01-06T14:15:47;7.80;99.90
2565;DHT22;1292;48.020;7.822;2024-01-06T14:18:13;7.80;99.90
2565;DHT22;1292;48.020;7.822;2024-01-06T14:20:42;7.80;99.90
2565;DHT22;1292;48.020;7.822;2024-01-06T14:23:08;7.70;99.90
2565;DHT22;1292;48.020;7.822;2024-01-06T14:25:36;7.70;99.90
2565;DHT22;1292;48.020;7.822;2024-01-06T14:28:05;7.80;99.90
2565;DHT22;1292;48.020;7.822;2024-01-06T14:30:32;7.70;99.90
2565;DHT22;1292;48.020;7.822;2024-01-06T14:32:59;7.70;99.90
2565;DHT22;1292;48.020;7.822;2024-01-06T14:35:26;7.70;99.90
2565;DHT22;1292;48.020;7.822;2024-01-06T14:37:53;7.60;99.90
2565;DHT22;1292;48.020;7.822;2024-01-06T14:40:20;7.60;99.90
2565;DHT22;1292;48.020;7.822;2024-01-06T14:42:46;7.50;99.90
2565;DHT22;1292;48.020;7.822;2024-01-06T14:45:15;7.40;99.90
2565;DHT22;1292;48.020;7.822;2024-01-06T14:47:43;7.30;99.90
2565;DHT22;1292;48.020;7.822;2024-01-06T14:50:10;7.30;99.90
2565;DHT22;1292;48.020;7.822;2024-01-06T14:52:37;7.30;99.90
2565;DHT22;1292;48.020;7.822;2024-01-06T14:55:05;7.20;99.90
2565;DHT22;1292;48.020;7.822;2024-01-06T14:57:32;7.10;99.90
2565;DHT22;1292;48.020;7.822;2024-01-06T15:00:00;7.10;99.90
2565;DHT22;1292;48.020;7.822;2024-01-06T15:02:28;7.10;99.90
2565;DHT22;1292;48.020;7.822;2024-01-06T15:04:55;7.10;99.90
2565;DHT22;1292;48.020;7.822;2024-01-06T15:07:22;7.10;99.90
2565;DHT22;1292;48.020;7.822;2024-01-06T15:09:49;7.20;99.90
2565;DHT22;1292;48.020;7.822;2024-01-06T15:12:16;7.10;99.90
2565;DHT22;1292;48.020;7.822;2024-01-06T15:14:43;7.20;99.90
2565;DHT22;1292;48.020;7.822;2024-01-06T15:17:10;7.20;99.90
2565;DHT22;1292;48.020;7.822;2024-01-06T15:19:38;7.20;99.90
2565;DHT22;1292;48.020;7.822;2024-01-06T15:22:07;7.20;99.90
2565;DHT22;1292;48.020;7.822;2024-01-06T15:24:33;7.20;99.90
2565;DHT22;1292;48.020;7.822;2024-01-06T15:27:00;7.20;99.90
2565;DHT22;1292;48.020;7.822;2024-01-06T15:29:27;7.20;99.90
2565;DHT22;1292;48.020;7.822;2024-01-06T15:31:54;7.20;99.90
2565;DHT22;1292;48.020;7.822;2024-01-06T15:34:22;7.20;99.90
2565;DHT22;1292;48.020;7.822;2024-01-06T15:36:52;7.20;99.90
2565;DHT22;1292;48.020;7.822;2024-01-06T15:39:22;7.20;99.90
2565;DHT22;1292;48.020;7.822;2024-01-06T15:41:50;7.20;99.90
2565;DHT22;1292;48.020;7.822;2024-01-06T15:44:21;7.30;99.90
2565;DHT22;1292;48.020;7.822;2024-01-06T15:46:49;7.30;99.90
2565;DHT22;1292;48.020;7.822;2024-01-06T15:49:16;7.20;99.90
2565;DHT22;1292;48.020;7.822;2024-01-06T15:51:44;7.20;99.90
2565;DHT22;1292;48.020;7.822;2024-01-06T15:54:12;7.20;99.90
2565;DHT22;1292;48.020;7.822;2024-01-06T15:56:39;7.20;99.90
2565;DHT22;1292;48.020;7.822;2024-01-06T15:59:06;7.20;99.90
2565;DHT22;1292;48.020;7.822;2024-01-06T16:01:33;7.20;99.90
2565;DHT22;1292;48.020;7.822;2024-01-06T16:04:00;7.20;99.90
2565;DHT22;1292;48.020;7.822;2024-01-06T16:06:27;7.20;99.90
2565;DHT22;1292;48.020;7.822;2024-01-06T16:08:53;7.20;99.90
2565;DHT22;1292;48.020;7.822;2024-01-06T16:11:22;7.20;99.90
2565;DHT22;1292;48.020;7.822;2024-01-06T16:14:10;7.20;99.90
2565;DHT22;1292;48.020;7.822;2024-01-06T16:16:53;7.20;99.90
2565;DHT22;1292;48.020;7.822;2024-01-06T16:19:20;7.20;99.90
2565;DHT22;1292;48.020;7.822;2024-01-06T16:21:47;7.30;99.90
2565;DHT22;1292;48.020;7.822;2024-01-06T16:24:15;7.20;99.90
2565;DHT22;1292;48.020;7.822;2024-01-06T16:26:46;7.20;99.90
2565;DHT22;1292;48.020;7.822;2024-01-06T16:29:12;7.20;99.90
2565;DHT22;1292;48.020;7.822;2024-01-06T16:31:39;7.20;99.90
2565;DHT22;1292;48.020;7.822;2024-01-06T16:34:06;7.20;99.90
2565;DHT22;1292;48.020;7.822;2024-01-06T16:36:33;7.20;99.90
2565;DHT22;1292;48.020;7.822;2024-01-06T16:39:00;7.10;99.90
2565;DHT22;1292;48.020;7.822;2024-01-06T16:41:27;7.10;99.90
2565;DHT22;1292;48.020;7.822;2024-01-06T16:43:56;7.20;99.90
2565;DHT22;1292;48.020;7.822;2024-01-06T16:46:23;7.10;99.90
2565;DHT22;1292;48.020;7.822;2024-01-06T16:48:50;7.10;99.90
2565;DHT22;1292;48.020;7.822;2024-01-06T16:51:16;7.20;99.90
2565;DHT22;1292;48.020;7.822;2024-01-06T16:53:43;7.10;99.90
2565;DHT22;1292;48.020;7.822;2024-01-06T16:56:10;7.10;99.90
2565;DHT22;1292;48.020;7.822;2024-01-06T16:58:37;7.10;99.90
2565;DHT22;1292;48.020;7.822;2024-01-06T17:01:05;7.10;99.90
2565;DHT22;1292;48.020;7.822;2024-01-06T17:03:32;7.10;99.90
2565;DHT22;1292;48.020;7.822;2024-01-06T17:05:59;7.10;99.90
2565;DHT22;1292;48.020;7.822;2024-01-06T17:08:26;7.00;99.90
2565;DHT22;1292;48.020;7.822;2024-01-06T17:10:53;6.90;99.90
2565;DHT22;1292;48.020;7.822;2024-01-06T17:13:20;6.90;99.90
2565;DHT22;1292;48.020;7.822;2024-01-06T17:15:47;6.90;99.90
2565;DHT22;1292;48.020;7.822;2024-01-06T17:18:15;6.90;99.90
2565;DHT22;1292;48.020;7.822;2024-01-06T17:20:42;6.80;99.90
2565;DHT22;1292;48.020;7.822;2024-01-06T17:23:09;6.70;99.90
2565;DHT22;1292;48.020;7.822;2024-01-06T17:25:37;6.70;99.90
2565;DHT22;1292;48.020;7.822;2024-01-06T17:28:04;6.70;99.90
2565;DHT22;1292;48.020;7.822;2024-01-06T17:30:31;6.70;99.90
2565;DHT22;1292;48.020;7.822;2024-01-06T17:32:58;6.60;99.90
2565;DHT22;1292;48.020;7.822;2024-01-06T17:35:26;6.70;99.90
2565;DHT22;1292;48.020;7.822;2024-01-06T17:37:53;6.80;99.90
2565;DHT22;1292;48.020;7.822;2024-01-06T17:40:20;6.80;99.90
2565;DHT22;1292;48.020;7.822;2024-01-06T17:42:47;6.90;99.90
2565;DHT22;1292;48.020;7.822;2024-01-06T17:45:14;6.90;99.90
2565;DHT22;1292;48.020;7.822;2024-01-06T17:47:41;6.90;99.90
2565;DHT22;1292;48.020;7.822;2024-01-06T17:50:10;6.90;99.90
2565;DHT22;1292;48.020;7.822;2024-01-06T17:52:38;7.00;99.90
2565;DHT22;1292;48.020;7.822;2024-01-06T17:55:06;7.00;99.90
2565;DHT22;1292;48.020;7.822;2024-01-06T17:57:33;7.10;99.90
2565;DHT22;1292;48.020;7.822;2024-01-06T18:00:00;7.10;99.90
2565;DHT22;1292;48.020;7.822;2024-01-06T18:02:26;7.10;99.90
2565;DHT22;1292;48.020;7.822;2024-01-06T18:04:53;7.10;99.90
2565;DHT22;1292;48.020;7.822;2024-01-06T18:07:21;7.10;99.90
2565;DHT22;1292;48.020;7.822;2024-01-06T18:09:49;7.10;99.90
2565;DHT22;1292;48.020;7.822;2024-01-06T18:12:16;7.10;99.90
2565;DHT22;1292;48.020;7.822;2024-01-06T18:14:43;7.10;99.90
2565;DHT22;1292;48.020;7.822;2024-01-06T18:17:10;7.20;99.90
2565;DHT22;1292;48.020;7.822;2024-01-06T18:19:37;7.20;99.90
2565;DHT22;1292;48.020;7.822;2024-01-06T18:22:04;7.20;99.90
2565;DHT22;1292;48.020;7.822;2024-01-06T18:24:30;7.20;99.90
2565;DHT22;1292;48.020;7.822;2024-01-06T18:26:59;7.20;99.90
2565;DHT22;1292;48.020;7.822;2024-01-06T18:29:26;7.20;99.90
2565;DHT22;1292;48.020;7.822;2024-01-06T18:31:53;7.20;99.90
2565;DHT22;1292;48.020;7.822;2024-01-06T18:34:20;7.10;99.90
2565;DHT22;1292;48.020;7.822;2024-01-06T18:36:47;7.00;99.90
2565;DHT22;1292;48.020;7.822;2024-01-06T18:39:13;7.00;99.90
2565;DHT22;1292;48.020;7.822;2024-01-06T18:41:41;6.90;99.90
2565;DHT22;1292;48.020;7.822;2024-01-06T18:44:09;6.90;99.90
2565;DHT22;1292;48.020;7.822;2024-01-06T18:46:36;6.90;99.90
2565;DHT22;1292;48.020;7.822;2024-01-06T18:49:03;7.00;99.90
2565;DHT22;1292;48.020;7.822;2024-01-06T18:51:31;7.00;99.90
2565;DHT22;1292;48.020;7.822;2024-01-06T18:54:02;6.90;99.90
2565;DHT22;1292;48.020;7.822;2024-01-06T18:56:29;6.80;99.90
2565;DHT22;1292;48.020;7.822;2024-01-06T18:58:57;6.80;99.90
2565;DHT22;1292;48.020;7.822;2024-01-06T19:01:25;6.90;99.90
2565;DHT22;1292;48.020;7.822;2024-01-06T19:03:53;7.00;99.90
2565;DHT22;1292;48.020;7.822;2024-01-06T19:06:19;7.00;99.90
2565;DHT22;1292;48.020;7.822;2024-01-06T19:08:46;7.00;99.90
2565;DHT22;1292;48.020;7.822;2024-01-06T19:11:13;7.00;99.90
2565;DHT22;1292;48.020;7.822;2024-01-06T19:13:40;7.00;99.90
2565;DHT22;1292;48.020;7.822;2024-01-06T19:16:07;6.90;99.90
2565;DHT22;1292;48.020;7.822;2024-01-06T19:18:35;6.90;99.90
2565;DHT22;1292;48.020;7.822;2024-01-06T19:21:02;7.00;99.90
2565;DHT22;1292;48.020;7.822;2024-01-06T19:23:30;7.10;99.90
2565;DHT22;1292;48.020;7.822;2024-01-06T19:25:57;7.00;99.90
2565;DHT22;1292;48.020;7.822;2024-01-06T19:28:24;7.00;99.90
2565;DHT22;1292;48.020;7.822;2024-01-06T19:30:50;6.90;99.90
2565;DHT22;1292;48.020;7.822;2024-01-06T19:33:18;6.90;99.90
2565;DHT22;1292;48.020;7.822;2024-01-06T19:35:47;7.00;99.90
2565;DHT22;1292;48.020;7.822;2024-01-06T19:38:14;7.00;99.90
2565;DHT22;1292;48.020;7.822;2024-01-06T19:40:41;7.00;99.90
2565;DHT22;1292;48.020;7.822;2024-01-06T19:43:08;6.90;99.90
2565;DHT22;1292;48.020;7.822;2024-01-06T19:45:35;7.00;99.90
2565;DHT22;1292;48.020;7.822;2024-01-06T19:48:02;7.00;99.90
2565;DHT22;1292;48.020;7.822;2024-01-06T19:50:29;7.00;99.90
2565;DHT22;1292;48.020;7.822;2024-01-06T19:52:57;7.10;99.90
2565;DHT22;1292;48.020;7.822;2024-01-06T19:55:24;7.10;99.90
2565;DHT22;1292;48.020;7.822;2024-01-06T19:57:51;7.10;99.90
2565;DHT22;1292;48.020;7.822;2024-01-06T20:00:18;7.10;99.90
2565;DHT22;1292;48.020;7.822;2024-01-06T20:02:45;7.10;99.90
2565;DHT22;1292;48.020;7.822;2024-01-06T20:05:13;7.10;99.90
2565;DHT22;1292;48.020;7.822;2024-01-06T20:07:40;7.00;99.90
2565;DHT22;1292;48.020;7.822;2024-01-06T20:10:09;7.00;99.90
2565;DHT22;1292;48.020;7.822;2024-01-06T20:12:36;7.00;99.90
2565;DHT22;1292;48.020;7.822;2024-01-06T20:15:04;7.00;99.90
2565;DHT22;1292;48.020;7.822;2024-01-06T20:17:31;7.00;99.90
2565;DHT22;1292;48.020;7.822;2024-01-06T20:19:58;7.00;99.90
2565;DHT22;1292;48.020;7.822;2024-01-06T20:22:24;6.90;99.90
2565;DHT22;1292;48.020;7.822;2024-01-06T20:24:52;6.90;99.90
2565;DHT22;1292;48.020;7.822;2024-01-06T20:27:21;6.90;99.90
2565;DHT22;1292;48.020;7.822;2024-01-06T20:29:48;6.90;99.90
2565;DHT22;1292;48.020;7.822;2024-01-06T20:32:17;6.90;99.90
2565;DHT22;1292;48.020;7.822;2024-01-06T20:34:44;6.90;99.90
2565;DHT22;1292;48.020;7.822;2024-01-06T20:37:12;6.90;99.90
2565;DHT22;1292;48.020;7.822;2024-01-06T20:39:39;6.90;99.90
2565;DHT22;1292;48.020;7.822;2024-01-06T20:42:06;6.90;99.90
2565;DHT22;1292;48.020;7.822;2024-01-06T20:44:35;6.80;99.90
2565;DHT22;1292;48.020;7.822;2024-01-06T20:47:02;6.80;99.90
2565;DHT22;1292;48.020;7.822;2024-01-06T20:49:29;6.80;99.90
2565;DHT22;1292;48.020;7.822;2024-01-06T20:51:56;6.80;99.90
2565;DHT22;1292;48.020;7.822;2024-01-06T20:54:23;6.80;99.90
2565;DHT22;1292;48.020;7.822;2024-01-06T20:56:52;6.80;99.90
2565;DHT22;1292;48.020;7.822;2024-01-06T20:59:19;6.80;99.90
2565;DHT22;1292;48.020;7.822;2024-01-06T21:01:47;6.70;99.90
2565;DHT22;1292;48.020;7.822;2024-01-06T21:04:14;6.70;99.90
2565;DHT22;1292;48.020;7.822;2024-01-06T21:06:41;6.70;99.90
2565;DHT22;1292;48.020;7.822;2024-01-06T21:09:08;6.70;99.90
2565;DHT22;1292;48.020;7.822;2024-01-06T21:11:35;6.70;99.90
2565;DHT22;1292;48.020;7.822;2024-01-06T21:14:02;6.70;99.90
2565;DHT22;1292;48.020;7.822;2024-01-06T21:16:28;6.60;99.90
2565;DHT22;1292;48.020;7.822;2024-01-06T21:18:57;6.60;99.90
2565;DHT22;1292;48.020;7.822;2024-01-06T21:21:23;6.60;99.90
2565;DHT22;1292;48.020;7.822;2024-01-06T21:23:50;6.60;99.90
2565;DHT22;1292;48.020;7.822;2024-01-06T21:26:17;6.60;99.90
2565;DHT22;1292;48.020;7.822;2024-01-06T21:28:44;6.60;99.90
2565;DHT22;1292;48.020;7.822;2024-01-06T21:31:13;6.60;99.90
2565;DHT22;1292;48.020;7.822;2024-01-06T21:33:40;6.60;99.90
2565;DHT22;1292;48.020;7.822;2024-01-06T21:36:08;6.50;99.90
2565;DHT22;1292;48.020;7.822;2024-01-06T21:38:36;6.50;99.90
2565;DHT22;1292;48.020;7.822;2024-01-06T21:41:03;6.40;99.90
2565;DHT22;1292;48.020;7.822;2024-01-06T21:43:30;6.50;99.90
2565;DHT22;1292;48.020;7.822;2024-01-06T21:45:57;6.50;99.90
2565;DHT22;1292;48.020;7.822;2024-01-06T21:48:23;6.50;99.90
2565;DHT22;1292;48.020;7.822;2024-01-06T21:50:50;6.50;99.90
2565;DHT22;1292;48.020;7.822;2024-01-06T21:53:20;6.60;99.90
2565;DHT22;1292;48.020;7.822;2024-01-06T21:55:47;6.50;99.90
2565;DHT22;1292;48.020;7.822;2024-01-06T21:58:14;6.50;99.90
2565;DHT22;1292;48.020;7.822;2024-01-06T22:00:41;6.50;99.90
2565;DHT22;1292;48.020;7.822;2024-01-06T22:03:10;6.50;99.90
2565;DHT22;1292;48.020;7.822;2024-01-06T22:05:37;6.50;99.90
2565;DHT22;1292;48.020;7.822;2024-01-06T22:08:05;6.50;99.90
2565;DHT22;1292;48.020;7.822;2024-01-06T22:10:34;6.50;99.90
2565;DHT22;1292;48.020;7.822;2024-01-06T22:13:01;6.40;99.90
2565;DHT22;1292;48.020;7.822;2024-01-06T22:15:28;6.40;99.90
2565;DHT22;1292;48.020;7.822;2024-01-06T22:17:55;6.40;99.90
2565;DHT22;1292;48.020;7.822;2024-01-06T22:20:22;6.40;99.90
2565;DHT22;1292;48.020;7.822;2024-01-06T22:22:49;6.40;99.90
2565;DHT22;1292;48.020;7.822;2024-01-06T22:25:15;6.40;99.90
2565;DHT22;1292;48.020;7.822;2024-01-06T22:27:44;6.50;99.90
2565;DHT22;1292;48.020;7.822;2024-01-06T22:30:11;6.50;99.90
2565;DHT22;1292;48.020;7.822;2024-01-06T22:32:41;6.40;99.90
2565;DHT22;1292;48.020;7.822;2024-01-06T22:35:08;6.40;99.90
2565;DHT22;1292;48.020;7.822;2024-01-06T22:37:35;6.40;99.90
2565;DHT22;1292;48.020;7.822;2024-01-06T22:40:03;6.40;99.90
